createdAt,value
2017-08-18T00:02:21.670Z,25.90
2017-08-18T00:04:50.074Z,26.00
2017-08-18T00:07:17.970Z,26.00
2017-08-18T00:09:45.466Z,26.10
2017-08-18T00:12:14.430Z,26.00
2017-08-18T00:14:41.939Z,26.00
2017-08-18T00:17:09.414Z,26.10
2017-08-18T00:19:36.895Z,26.10
2017-08-18T00:22:04.401Z,26.00
2017-08-18T00:24:31.882Z,25.80
2017-08-18T00:26:59.349Z,25.80
2017-08-18T00:29:26.857Z,25.80
2017-08-18T00:31:54.342Z,25.60
2017-08-18T00:34:21.825Z,25.50
2017-08-18T00:36:49.335Z,25.50
2017-08-18T00:39:16.820Z,25.40
2017-08-18T00:41:44.308Z,25.60
2017-08-18T00:44:11.810Z,25.80
2017-08-18T00:46:39.286Z,25.60
2017-08-18T00:49:07.536Z,25.60
2017-08-18T00:51:35.052Z,25.60
2017-08-18T00:54:02.531Z,25.90
2017-08-18T00:56:30.009Z,25.80
2017-08-18T00:58:57.512Z,25.80
2017-08-18T01:01:24.991Z,25.70
2017-08-18T01:03:52.475Z,25.70
2017-08-18T01:06:19.978Z,25.70
2017-08-18T01:08:48.227Z,25.80
2017-08-18T01:11:15.710Z,25.70
2017-08-18T01:13:43.210Z,25.80
2017-08-18T01:16:10.707Z,25.80
2017-08-18T01:18:38.186Z,25.80
2017-08-18T01:21:05.688Z,25.80
2017-08-18T01:23:33.183Z,25.50
2017-08-18T01:26:00.667Z,25.60
2017-08-18T01:28:29.053Z,25.40
2017-08-18T01:30:57.302Z,25.30
2017-08-18T01:33:24.783Z,25.20
2017-08-18T01:35:53.062Z,25.10
2017-08-18T01:38:21.324Z,25.00
2017-08-18T01:40:48.841Z,24.90
2017-08-18T01:43:16.351Z,25.10
2017-08-18T01:45:43.825Z,25.00
2017-08-18T01:48:11.297Z,24.90
2017-08-18T01:50:38.803Z,24.90
2017-08-18T01:53:06.279Z,24.90
2017-08-18T01:55:33.768Z,24.80
2017-08-18T01:58:01.291Z,24.80
2017-08-18T02:00:28.770Z,24.80
2017-08-18T02:02:57.022Z,24.80
2017-08-18T02:05:24.528Z,24.80
2017-08-18T02:07:52.006Z,24.80
2017-08-18T02:10:19.478Z,25.00
2017-08-18T02:12:46.983Z,25.20
2017-08-18T02:15:15.234Z,25.50
2017-08-18T02:17:42.718Z,25.40
2017-08-18T02:20:10.997Z,25.50
2017-08-18T02:22:39.242Z,25.40
2017-08-18T02:25:06.731Z,25.40
2017-08-18T02:27:35.010Z,25.10
2017-08-18T02:30:03.266Z,25.00
2017-08-18T02:32:30.754Z,25.00
2017-08-18T02:34:58.252Z,25.30
2017-08-18T02:37:25.736Z,25.00
2017-08-18T02:39:53.206Z,24.80
2017-08-18T02:42:20.710Z,24.80
2017-08-18T02:44:48.191Z,24.60
2017-08-18T02:47:15.676Z,24.80
2017-08-18T02:49:43.201Z,24.80
2017-08-18T02:52:10.681Z,24.70
2017-08-18T02:54:38.166Z,24.70
2017-08-18T02:57:05.671Z,24.60
2017-08-18T02:59:33.164Z,24.50
2017-08-18T03:02:00.650Z,24.30
2017-08-18T03:04:28.930Z,24.10
2017-08-18T03:06:57.178Z,24.10
2017-08-18T03:09:24.667Z,24.10
2017-08-18T03:11:52.945Z,24.30
2017-08-18T03:14:21.186Z,24.10
2017-08-18T03:16:48.665Z,24.10
2017-08-18T03:19:16.171Z,24.00
2017-08-18T03:21:43.658Z,24.10
2017-08-18T03:24:11.138Z,23.90
2017-08-18T03:26:38.642Z,24.00
2017-08-18T03:29:06.126Z,24.00
2017-08-18T03:31:33.610Z,24.00
2017-08-18T03:34:01.114Z,24.00
2017-08-18T03:36:28.614Z,24.00
2017-08-18T03:38:56.098Z,23.90
2017-08-18T03:41:23.598Z,23.80
2017-08-18T03:43:51.090Z,23.90
2017-08-18T03:46:18.573Z,23.80
2017-08-18T03:48:46.087Z,23.80
2017-08-18T03:51:13.571Z,23.70
2017-08-18T03:53:41.067Z,23.70
2017-08-18T03:56:09.380Z,23.60
2017-08-18T03:58:36.865Z,23.60
2017-08-18T04:01:04.352Z,24.00
2017-08-18T04:03:31.851Z,24.00
2017-08-18T04:05:59.325Z,23.90
2017-08-18T04:08:26.797Z,23.90
2017-08-18T04:10:54.310Z,24.10
2017-08-18T04:13:22.554Z,24.10
2017-08-18T04:15:50.047Z,24.10
2017-08-18T04:18:17.561Z,24.00
2017-08-18T04:20:45.029Z,24.10
2017-08-18T04:23:12.502Z,23.80
2017-08-18T04:25:40.009Z,23.80
2017-08-18T04:28:07.504Z,23.80
2017-08-18T04:30:34.973Z,23.80
2017-08-18T04:33:02.488Z,24.10
2017-08-18T04:35:29.971Z,24.10
2017-08-18T04:37:57.465Z,24.20
2017-08-18T04:40:25.741Z,24.60
2017-08-18T04:42:53.999Z,24.40
2017-08-18T04:45:21.494Z,24.40
2017-08-18T04:47:49.002Z,24.30
2017-08-18T04:50:16.482Z,24.30
2017-08-18T04:52:43.962Z,24.10
2017-08-18T04:55:12.233Z,24.40
2017-08-18T04:57:40.483Z,24.20
2017-08-18T05:00:07.968Z,24.10
2017-08-18T05:03:04.751Z,24.20
2017-08-18T05:05:32.239Z,24.10
2017-08-18T05:07:59.726Z,24.10
2017-08-18T05:10:28.001Z,24.20
2017-08-18T05:12:56.245Z,24.40
2017-08-18T05:15:23.718Z,24.40
2017-08-18T05:17:51.217Z,24.30
2017-08-18T05:20:18.700Z,24.10
2017-08-18T05:22:46.185Z,24.00
2017-08-18T05:25:13.703Z,23.80
2017-08-18T05:27:41.185Z,23.90
2017-08-18T05:30:08.683Z,24.00
2017-08-18T05:32:36.187Z,24.30
2017-08-18T05:35:03.665Z,24.30
2017-08-18T05:37:31.141Z,24.40
2017-08-18T05:39:58.656Z,24.30
2017-08-18T05:42:26.160Z,24.40
2017-08-18T05:44:53.637Z,24.30
2017-08-18T05:47:21.155Z,24.50
2017-08-18T05:49:48.647Z,24.80
2017-08-18T05:52:16.162Z,24.60
2017-08-18T05:54:43.669Z,24.70
2017-08-18T05:57:11.153Z,24.70
2017-08-18T05:59:39.404Z,24.60
2017-08-18T06:02:06.906Z,24.60
2017-08-18T06:04:34.398Z,24.50
2017-08-18T06:07:02.077Z,24.60
2017-08-18T06:09:30.145Z,24.60
2017-08-18T06:11:57.643Z,24.50
2017-08-18T06:14:25.140Z,24.50
2017-08-18T06:16:52.645Z,24.60
2017-08-18T06:19:20.127Z,24.60
2017-08-18T06:21:47.718Z,24.60
2017-08-18T06:24:15.236Z,24.70
2017-08-18T06:26:43.491Z,24.80
2017-08-18T06:29:10.966Z,24.80
2017-08-18T06:31:39.234Z,24.80
2017-08-18T06:34:06.724Z,24.70
2017-08-18T06:36:34.206Z,25.00
2017-08-18T06:39:01.719Z,24.80
2017-08-18T06:41:29.189Z,24.90
2017-08-18T06:43:57.451Z,25.10
2017-08-18T06:46:24.995Z,25.00
2017-08-18T06:48:52.482Z,25.10
2017-08-18T06:51:19.970Z,25.10
2017-08-18T06:53:47.473Z,25.20
2017-08-18T06:56:14.958Z,25.20
2017-08-18T06:58:43.205Z,25.40
2017-08-18T07:01:10.736Z,25.40
2017-08-18T07:03:38.229Z,25.40
2017-08-18T07:06:05.714Z,25.40
2017-08-18T07:08:33.986Z,25.50
2017-08-18T07:11:02.243Z,25.60
2017-08-18T07:13:29.723Z,25.60
2017-08-18T07:15:58.015Z,25.70
2017-08-18T07:18:25.499Z,25.60
2017-08-18T07:20:52.996Z,25.60
2017-08-18T07:23:20.510Z,25.60
2017-08-18T07:25:47.995Z,25.70
2017-08-18T07:28:15.487Z,25.70
2017-08-18T07:30:42.989Z,25.70
2017-08-18T07:33:10.466Z,25.70
2017-08-18T07:35:37.953Z,25.80
2017-08-18T07:38:05.456Z,25.90
2017-08-18T07:40:32.932Z,26.10
2017-08-18T07:43:00.419Z,26.10
2017-08-18T07:45:27.926Z,26.10
2017-08-18T07:47:55.419Z,26.10
2017-08-18T07:50:22.905Z,26.10
2017-08-18T07:52:50.418Z,26.10
2017-08-18T07:55:17.899Z,26.20
2017-08-18T07:57:45.391Z,26.20
2017-08-18T08:00:12.906Z,26.20
2017-08-18T08:02:40.390Z,26.30
2017-08-18T08:05:07.890Z,26.30
2017-08-18T08:07:35.393Z,26.60
2017-08-18T08:10:02.885Z,26.50
2017-08-18T08:12:30.375Z,26.80
2017-08-18T08:14:57.893Z,26.90
2017-08-18T08:17:25.386Z,26.90
2017-08-18T08:19:52.926Z,27.00
2017-08-18T08:22:20.439Z,27.10
2017-08-18T08:24:47.923Z,27.10
2017-08-18T08:27:15.426Z,27.00
2017-08-18T08:29:43.710Z,27.00
2017-08-18T08:32:11.455Z,26.90
2017-08-18T08:34:39.954Z,27.10
2017-08-18T08:37:07.550Z,27.10
2017-08-18T08:39:35.077Z,27.10
2017-08-18T08:42:03.390Z,27.00
2017-08-18T08:44:30.897Z,27.00
2017-08-18T08:46:59.269Z,27.10
2017-08-18T08:49:26.883Z,27.10
2017-08-18T08:51:55.047Z,27.20
2017-08-18T08:54:22.836Z,27.40
2017-08-18T08:56:50.339Z,27.40
2017-08-18T08:59:17.846Z,27.20
2017-08-18T09:01:45.322Z,27.70
2017-08-18T09:04:12.839Z,27.70
2017-08-18T09:06:40.389Z,27.80
2017-08-18T09:09:08.949Z,28.10
2017-08-18T09:11:36.437Z,28.10
2017-08-18T09:14:04.707Z,28.30
2017-08-18T09:16:32.966Z,28.50
2017-08-18T09:19:00.447Z,28.40
2017-08-18T09:21:27.984Z,28.60
2017-08-18T09:23:55.461Z,28.90
2017-08-18T09:26:23.847Z,28.60
2017-08-18T09:28:52.238Z,28.40
2017-08-18T09:31:19.719Z,28.30
2017-08-18T09:33:47.280Z,28.60
2017-08-18T09:36:14.773Z,28.70
2017-08-18T09:38:42.281Z,28.20
2017-08-18T09:41:09.790Z,28.10
2017-08-18T09:43:37.311Z,27.90
2017-08-18T09:46:04.874Z,28.30
2017-08-18T09:48:44.205Z,28.50
2017-08-18T09:51:23.685Z,28.20
2017-08-18T09:54:02.974Z,27.90
2017-08-18T09:56:42.395Z,27.90
2017-08-18T09:59:12.471Z,29.10
2017-08-18T10:01:39.981Z,29.10
2017-08-18T10:04:07.850Z,29.70
2017-08-18T10:06:35.534Z,30.00
2017-08-18T10:09:04.325Z,30.20
2017-08-18T10:11:32.601Z,30.90
2017-08-18T10:14:00.778Z,30.70
2017-08-18T10:16:29.277Z,30.00
2017-08-18T10:18:56.758Z,30.00
2017-08-18T10:21:24.261Z,30.40
2017-08-18T10:23:51.742Z,30.50
2017-08-18T10:26:19.222Z,30.00
2017-08-18T10:28:46.719Z,29.70
2017-08-18T10:31:14.972Z,30.00
2017-08-18T10:33:42.470Z,30.00
2017-08-18T10:36:09.989Z,31.00
2017-08-18T10:38:37.477Z,31.70
2017-08-18T10:41:05.717Z,31.60
2017-08-18T10:43:33.223Z,31.50
2017-08-18T10:46:00.711Z,31.60
2017-08-18T10:48:28.187Z,30.80
2017-08-18T10:50:55.692Z,31.40
2017-08-18T10:53:23.938Z,31.90
2017-08-18T10:55:51.420Z,31.80
2017-08-18T10:58:19.697Z,29.80
2017-08-18T11:00:47.945Z,31.00
2017-08-18T11:03:15.438Z,30.90
2017-08-18T11:05:43.706Z,30.30
2017-08-18T11:08:11.953Z,29.90
2017-08-18T11:10:39.434Z,29.90
2017-08-18T11:13:06.942Z,31.10
2017-08-18T11:15:34.431Z,30.10
2017-08-18T11:18:01.934Z,30.30
2017-08-18T11:20:30.204Z,30.70
2017-08-18T11:22:58.450Z,31.20
2017-08-18T11:25:25.932Z,31.20
2017-08-18T11:27:53.440Z,31.10
2017-08-18T11:30:20.923Z,30.90
2017-08-18T11:32:48.404Z,29.90
2017-08-18T11:35:15.919Z,29.80
2017-08-18T11:37:43.405Z,30.20
2017-08-18T11:40:10.901Z,30.90
2017-08-18T11:42:38.406Z,31.10
2017-08-18T11:45:05.948Z,31.00
2017-08-18T11:47:33.438Z,31.20
2017-08-18T11:50:00.961Z,30.30
2017-08-18T11:52:28.459Z,30.80
2017-08-18T11:54:55.956Z,31.00
2017-08-18T11:57:24.234Z,30.20
2017-08-18T11:59:51.730Z,30.20
2017-08-18T12:02:19.212Z,31.10
2017-08-18T12:04:46.711Z,30.20
2017-08-18T12:07:14.954Z,31.00
2017-08-18T12:09:42.434Z,30.90
2017-08-18T12:12:10.710Z,31.20
2017-08-18T12:14:38.958Z,31.00
2017-08-18T12:17:06.452Z,31.00
2017-08-18T12:19:33.972Z,30.60
2017-08-18T12:22:01.463Z,30.70
2017-08-18T12:24:29.718Z,31.10
2017-08-18T12:26:58.215Z,31.10
2017-08-18T12:29:26.668Z,31.20
2017-08-18T12:31:54.888Z,30.90
2017-08-18T12:34:23.158Z,31.50
2017-08-18T12:36:51.408Z,31.70
2017-08-18T12:39:18.877Z,31.60
2017-08-18T12:41:46.385Z,31.40
2017-08-18T12:44:13.858Z,31.50
2017-08-18T12:46:41.732Z,31.50
2017-08-18T12:49:09.239Z,31.80
2017-08-18T12:51:37.625Z,31.20
2017-08-18T12:54:06.872Z,30.20
2017-08-18T12:56:34.777Z,30.20
2017-08-18T12:59:04.459Z,30.80
2017-08-18T13:01:32.617Z,30.70
2017-08-18T13:04:00.164Z,30.90
2017-08-18T13:06:27.648Z,31.80
2017-08-18T13:08:55.298Z,32.10
2017-08-18T13:11:22.818Z,32.20
2017-08-18T13:13:51.074Z,31.80
2017-08-18T13:16:18.562Z,31.80
2017-08-18T13:18:46.826Z,31.00
2017-08-18T13:21:15.100Z,31.50
2017-08-18T13:23:43.347Z,31.40
2017-08-18T13:26:10.845Z,31.40
2017-08-18T13:28:39.098Z,31.40
2017-08-18T13:31:07.236Z,31.40
2017-08-18T13:33:35.143Z,32.00
2017-08-18T13:36:02.771Z,32.30
2017-08-18T13:38:31.048Z,32.20
2017-08-18T13:40:58.567Z,31.90
2017-08-18T13:43:26.804Z,31.40
2017-08-18T13:45:54.276Z,31.40
2017-08-18T13:48:21.778Z,31.70
2017-08-18T13:50:49.270Z,32.20
2017-08-18T13:53:16.751Z,31.10
2017-08-18T13:55:44.258Z,30.40
2017-08-18T13:58:11.726Z,30.40
2017-08-18T14:00:39.202Z,31.20
2017-08-18T14:03:06.712Z,31.80
2017-08-18T14:05:34.958Z,31.90
2017-08-18T14:08:02.445Z,31.80
2017-08-18T14:10:30.717Z,31.60
2017-08-18T14:12:59.014Z,31.60
2017-08-18T14:15:27.267Z,31.70
2017-08-18T14:17:54.784Z,31.60
2017-08-18T14:20:22.271Z,31.40
2017-08-18T14:22:49.754Z,31.00
2017-08-18T14:25:23.609Z,31.50
2017-08-18T14:27:51.081Z,31.60
2017-08-18T14:30:18.569Z,31.90
2017-08-18T14:32:46.074Z,31.70
2017-08-18T14:35:13.556Z,31.10
2017-08-18T14:37:41.051Z,30.50
2017-08-18T14:40:09.322Z,32.00
2017-08-18T14:42:36.810Z,31.90
2017-08-18T14:45:04.300Z,31.90
2017-08-18T14:47:31.802Z,32.20
2017-08-18T14:49:59.287Z,32.60
2017-08-18T14:52:26.780Z,32.20
2017-08-18T14:54:54.273Z,32.60
2017-08-18T14:57:21.751Z,32.40
2017-08-18T14:59:50.000Z,32.50
2017-08-18T15:02:17.494Z,32.50
2017-08-18T15:04:45.740Z,32.70
2017-08-18T15:07:13.222Z,32.60
2017-08-18T15:09:40.735Z,31.80
2017-08-18T15:12:08.205Z,32.50
2017-08-18T15:14:35.683Z,32.20
2017-08-18T15:17:03.181Z,32.80
2017-08-18T15:19:30.671Z,32.70
2017-08-18T15:21:58.158Z,32.60
2017-08-18T15:24:25.667Z,32.60
2017-08-18T15:26:53.150Z,32.10
2017-08-18T15:29:20.616Z,32.20
2017-08-18T15:31:48.352Z,32.70
2017-08-18T15:34:16.220Z,33.00
2017-08-18T15:36:43.718Z,32.60
2017-08-18T15:39:11.416Z,32.40
2017-08-18T15:41:39.702Z,32.00
2017-08-18T15:44:07.238Z,32.10
2017-08-18T15:46:35.516Z,32.20
2017-08-18T15:49:03.760Z,32.10
2017-08-18T15:51:31.252Z,32.10
2017-08-18T15:53:59.535Z,31.90
2017-08-18T15:56:27.790Z,32.20
2017-08-18T15:58:55.282Z,32.20
2017-08-18T16:01:22.812Z,32.40
2017-08-18T16:03:50.326Z,32.20
2017-08-18T16:06:17.814Z,32.30
2017-08-18T16:08:45.324Z,32.30
2017-08-18T16:11:12.815Z,32.20
2017-08-18T16:13:40.297Z,32.30
2017-08-18T16:16:07.803Z,32.40
2017-08-18T16:18:35.291Z,32.50
2017-08-18T16:21:02.788Z,32.30
2017-08-18T16:23:30.299Z,32.30
2017-08-18T16:25:57.777Z,32.30
2017-08-18T16:28:25.252Z,32.00
2017-08-18T16:30:52.756Z,32.00
2017-08-18T16:33:20.242Z,31.90
2017-08-18T16:35:47.738Z,31.90
2017-08-18T16:38:15.253Z,31.60
2017-08-18T16:40:42.739Z,31.80
2017-08-18T16:43:10.222Z,31.80
2017-08-18T16:45:37.726Z,32.00
2017-08-18T16:48:05.205Z,31.30
2017-08-18T16:50:32.699Z,31.60
2017-08-18T16:53:00.984Z,32.00
2017-08-18T16:55:29.239Z,31.90
2017-08-18T16:57:56.723Z,31.90
2017-08-18T17:00:24.998Z,31.90
2017-08-18T17:02:53.238Z,31.80
2017-08-18T17:05:20.721Z,31.80
2017-08-18T17:07:48.237Z,31.70
2017-08-18T17:10:15.737Z,31.70
2017-08-18T17:12:43.220Z,31.70
2017-08-18T17:15:11.497Z,31.90
2017-08-18T17:17:39.735Z,31.60
2017-08-18T17:20:07.212Z,31.60
2017-08-18T17:22:34.722Z,31.60
2017-08-18T17:25:02.209Z,31.70
2017-08-18T17:27:29.688Z,31.50
2017-08-18T17:29:57.202Z,31.70
2017-08-18T17:32:24.681Z,31.70
2017-08-18T17:34:52.168Z,31.50
2017-08-18T17:37:19.670Z,31.40
2017-08-18T17:39:47.159Z,31.30
2017-08-18T17:42:14.641Z,31.30
2017-08-18T17:44:42.148Z,31.30
2017-08-18T17:47:09.637Z,31.40
2017-08-18T17:49:37.130Z,31.10
2017-08-18T17:52:05.416Z,31.20
2017-08-18T17:54:33.792Z,31.10
2017-08-18T17:57:01.299Z,31.00
2017-08-18T17:59:28.805Z,30.80
2017-08-18T18:01:57.067Z,30.70
2017-08-18T18:04:24.546Z,30.60
2017-08-18T18:06:52.822Z,30.70
2017-08-18T18:09:20.306Z,30.70
2017-08-18T18:11:47.793Z,30.80
2017-08-18T18:14:15.416Z,30.70
2017-08-18T18:16:43.010Z,30.80
2017-08-18T18:19:11.690Z,30.60
2017-08-18T18:21:39.355Z,30.50
2017-08-18T18:24:07.038Z,30.40
2017-08-18T18:26:34.965Z,30.50
2017-08-18T18:29:04.797Z,30.40
2017-08-18T18:31:32.863Z,30.40
2017-08-18T18:34:00.952Z,30.40
2017-08-18T18:36:29.408Z,30.40
2017-08-18T18:38:57.387Z,30.40
2017-08-18T18:41:25.946Z,30.40
2017-08-18T18:43:55.893Z,30.30
2017-08-18T18:46:23.933Z,30.20
2017-08-18T18:48:52.341Z,30.20
2017-08-18T18:51:20.806Z,30.10
2017-08-18T18:53:48.937Z,30.20
2017-08-18T18:56:17.254Z,30.20
2017-08-18T18:58:46.148Z,30.10
2017-08-18T19:01:14.866Z,30.00
2017-08-18T19:03:42.943Z,30.00
2017-08-18T19:06:10.972Z,30.00
2017-08-18T19:08:39.964Z,29.80
2017-08-18T19:11:08.830Z,29.70
2017-08-18T19:13:37.272Z,29.70
2017-08-18T19:16:05.246Z,29.70
2017-08-18T19:18:32.726Z,29.60
2017-08-18T19:21:00.234Z,29.50
2017-08-18T19:23:27.720Z,29.70
2017-08-18T19:25:55.220Z,29.70
2017-08-18T19:28:22.727Z,29.70
2017-08-18T19:30:50.227Z,29.70
2017-08-18T19:33:17.730Z,29.60
2017-08-18T19:35:46.020Z,29.50
2017-08-18T19:38:13.515Z,29.50
2017-08-18T19:40:41.314Z,29.50
2017-08-18T19:43:09.753Z,29.60
2017-08-18T19:45:37.397Z,29.60
2017-08-18T19:48:05.041Z,29.50
2017-08-18T19:50:33.422Z,29.50
2017-08-18T19:53:01.716Z,29.50
2017-08-18T19:55:29.306Z,29.50
2017-08-18T19:57:57.648Z,29.50
2017-08-18T20:00:26.321Z,29.50
2017-08-18T20:02:54.569Z,29.30
2017-08-18T20:05:22.083Z,29.30
2017-08-18T20:07:49.566Z,29.40
2017-08-18T20:10:17.057Z,29.40
2017-08-18T20:12:44.577Z,29.40
2017-08-18T20:15:12.194Z,29.30
2017-08-18T20:17:40.612Z,29.20
2017-08-18T20:20:08.285Z,29.10
2017-08-18T20:22:35.809Z,29.20
2017-08-18T20:25:03.311Z,29.30
2017-08-18T20:27:30.809Z,29.30
2017-08-18T20:29:59.073Z,29.10
2017-08-18T20:32:26.571Z,29.00
2017-08-18T20:34:54.250Z,29.10
2017-08-18T20:37:21.799Z,29.20
2017-08-18T20:39:49.372Z,29.30
2017-08-18T20:42:16.899Z,29.00
2017-08-18T20:44:45.350Z,29.00
2017-08-18T20:47:12.876Z,28.90
2017-08-18T20:49:40.433Z,28.90
2017-08-18T20:52:07.925Z,28.80
2017-08-18T20:54:35.774Z,29.00
2017-08-18T20:57:03.331Z,29.00
2017-08-18T20:59:30.823Z,28.90
2017-08-18T21:01:58.482Z,28.80
2017-08-18T21:04:26.106Z,28.80
2017-08-18T21:06:53.634Z,28.70
2017-08-18T21:09:21.225Z,28.70
2017-08-18T21:11:48.729Z,28.70
2017-08-18T21:14:16.252Z,28.70
2017-08-18T21:16:43.761Z,28.70
2017-08-18T21:19:12.082Z,28.50
2017-08-18T21:21:39.585Z,28.50
2017-08-18T21:24:07.070Z,28.50
2017-08-18T21:26:34.670Z,28.40
2017-08-18T21:29:02.316Z,28.40
2017-08-18T21:31:29.868Z,28.30
2017-08-18T21:33:57.398Z,28.30
2017-08-18T21:36:24.893Z,28.30
2017-08-18T21:38:52.583Z,28.30
2017-08-18T21:41:20.126Z,28.20
2017-08-18T21:43:47.846Z,28.20
2017-08-18T21:46:15.479Z,28.10
2017-08-18T21:48:42.996Z,28.00
2017-08-18T21:51:10.533Z,28.00
2017-08-18T21:53:38.772Z,28.00
2017-08-18T21:56:06.309Z,27.90
2017-08-18T21:58:33.799Z,28.00
2017-08-18T22:01:01.300Z,28.00
2017-08-18T22:03:29.582Z,27.80
2017-08-18T22:05:57.074Z,27.80
2017-08-18T22:08:24.581Z,27.90
2017-08-18T22:10:52.114Z,27.90
2017-08-18T22:13:19.604Z,27.80
2017-08-18T22:15:47.153Z,27.70
2017-08-18T22:18:15.838Z,27.70
2017-08-18T22:20:43.340Z,27.60
2017-08-18T22:23:11.319Z,27.60
2017-08-18T22:25:38.844Z,27.50
2017-08-18T22:28:06.425Z,27.60
2017-08-18T22:30:33.907Z,27.40
2017-08-18T22:33:01.416Z,27.30
2017-08-18T22:35:29.738Z,27.60
2017-08-18T22:37:57.256Z,27.50
2017-08-18T22:40:25.020Z,27.50
2017-08-18T22:42:52.590Z,27.40
2017-08-18T22:45:20.064Z,27.30
2017-08-18T22:47:47.613Z,27.30
2017-08-18T22:50:15.095Z,27.20
2017-08-18T22:52:42.587Z,27.20
2017-08-18T22:55:10.289Z,27.30
2017-08-18T22:57:37.782Z,27.30
2017-08-18T23:00:05.275Z,27.30
2017-08-18T23:02:32.795Z,27.30
2017-08-18T23:05:00.283Z,27.30
2017-08-18T23:07:27.770Z,27.30
2017-08-18T23:09:56.050Z,27.30
2017-08-18T23:12:23.548Z,27.20
2017-08-18T23:14:51.036Z,27.10
2017-08-18T23:17:18.546Z,27.10
2017-08-18T23:19:46.795Z,27.10
2017-08-18T23:22:14.287Z,27.10
2017-08-18T23:24:41.830Z,27.00
2017-08-18T23:27:09.325Z,26.90
2017-08-18T23:29:36.823Z,26.70
2017-08-18T23:32:04.331Z,26.70
2017-08-18T23:34:31.810Z,26.80
2017-08-18T23:36:59.293Z,26.90
2017-08-18T23:39:26.795Z,26.90
2017-08-18T23:41:55.054Z,26.90
2017-08-18T23:44:22.532Z,26.80
2017-08-18T23:46:50.793Z,27.20
2017-08-18T23:49:18.283Z,27.20
2017-08-18T23:51:45.777Z,26.90
2017-08-18T23:54:13.300Z,26.80
2017-08-18T23:56:40.786Z,26.60
2017-08-18T23:59:08.291Z,26.60
